»·PEaware :: AAL614 KMSY-KMSP

AAL614 :: KMSY-KMSP

FLIGHT INFORMATION

Flight Status: Arrived
Operator:
American Airlines
More flights by this operator :: More flights under this callsign
Pilot: John H. (7647)
Aircraft: BOEING 737-800
(B738)
More flights by this aircraft type
Origin: KMSY Armstrong New Orleans Intl
United States
Destination: KMSP Minneapolis-St Paul Intl
United States
More flights between these airports :: More routes between these airports
Route: MCB LIT SGF J41 MCI ROKKK NITZR3
File this flight plan on PilotEdge
Remarks:
Altitude:
(Current/Filed)
34,000ft
Speed:
(Current/Filed)
466kts
Departed: 16-Sep-18 09:07 AM
Arrived: 16-Sep-18 11:31 AM
Distance/Time
Traveled:
904nm/2:24
Distance/Time
To Go:
Arrived

Flight Plot

Page will automatically refresh every two minutes.

Flight plan parsing failed; only flown route is shown


Map Options




Map Legend


Flown Route
Filed Route
Departure Airport
Arrival Airport
Navaid (VOR, NDB)
Fix

Horizontal Profiles

Position Reports

Time Latitude Longitude Heading Altitude Ground
Speed
16-Sep-18 09:03 29.987181 -90.252751 253 11ft 0kts
16-Sep-18 09:04 29.987181 -90.252751 253 11ft 0kts
16-Sep-18 09:05 29.987224 -90.252580 265 11ft 2kts
16-Sep-18 09:06 29.986882 -90.252113 356 11ft 2kts
16-Sep-18 09:07 29.986697 -90.252146 16 11ft 0kts
16-Sep-18 09:08 29.986909 -90.252076 15 11ft 6kts
16-Sep-18 09:09 29.990973 -90.258272 284 11ft 105kts
16-Sep-18 09:10 30.003582 -90.311867 285 650ft 242kts
16-Sep-18 09:11 30.016751 -90.369356 293 1664ft 231kts
16-Sep-18 09:12 30.087754 -90.394355 6 4377ft 269kts
16-Sep-18 09:13 30.149599 -90.378212 27 6883ft 281kts
16-Sep-18 09:14 30.215876 -90.304712 39 10280ft 292kts
16-Sep-18 09:15 30.276253 -90.258994 13 11600ft 336kts
16-Sep-18 09:16 30.387047 -90.257266 357 14615ft 348kts
16-Sep-18 09:17 30.467998 -90.257683 357 16744ft 352kts
16-Sep-18 09:18 30.582735 -90.257937 356 19407ft 361kts
16-Sep-18 09:19 30.666841 -90.258020 356 21079ft 369kts
16-Sep-18 09:20 30.770682 -90.258064 356 22931ft 379kts
16-Sep-18 09:21 30.876774 -90.258044 356 24651ft 387kts
16-Sep-18 09:22 30.985104 -90.258033 355 26262ft 394kts
16-Sep-18 09:23 31.095262 -90.257992 355 27752ft 401kts
16-Sep-18 09:24 31.197421 -90.257937 355 29016ft 407kts
16-Sep-18 09:25 31.309252 -90.263310 340 30528ft 397kts
16-Sep-18 09:26 31.409054 -90.314214 331 31992ft 389kts
16-Sep-18 09:27 31.506136 -90.367639 331 33300ft 386kts
16-Sep-18 09:28 31.603666 -90.421350 331 33999ft 398kts
16-Sep-18 09:29 31.704587 -90.477065 331 33992ft 424kts
16-Sep-18 09:30 31.811056 -90.535852 330 33989ft 425kts
16-Sep-18 09:31 31.920535 -90.596559 329 34000ft 451kts
16-Sep-18 09:32 32.036118 -90.660981 329 34006ft 480kts
16-Sep-18 09:33 32.154767 -90.727021 329 33991ft 479kts
16-Sep-18 09:34 32.274971 -90.794129 329 33993ft 480kts
16-Sep-18 09:35 32.394732 -90.861176 329 33993ft 480kts
16-Sep-18 09:36 32.514868 -90.928678 329 33994ft 480kts
16-Sep-18 09:37 32.634823 -90.996260 329 33995ft 480kts
16-Sep-18 09:38 32.754573 -91.063942 329 33993ft 480kts
16-Sep-18 09:39 32.874322 -91.131841 329 33999ft 480kts
16-Sep-18 09:40 32.993604 -91.199692 329 33998ft 465kts
16-Sep-18 09:41 33.105930 -91.263714 329 33995ft 457kts
16-Sep-18 09:42 33.218522 -91.328156 329 33989ft 456kts
16-Sep-18 09:43 33.332222 -91.393395 329 33989ft 456kts
16-Sep-18 09:44 33.445860 -91.458834 330 34013ft 456kts
16-Sep-18 09:45 33.562753 -91.526566 333 34022ft 480kts
16-Sep-18 09:46 33.681971 -91.595628 333 34023ft 478kts
16-Sep-18 09:47 33.799792 -91.664082 332 34023ft 479kts
16-Sep-18 09:48 33.918995 -91.733485 332 34024ft 478kts
16-Sep-18 09:49 34.037979 -91.802990 332 34024ft 478kts
16-Sep-18 09:50 34.155294 -91.871745 332 34018ft 478kts
16-Sep-18 09:51 34.274473 -91.941846 332 34021ft 478kts
16-Sep-18 09:52 34.393087 -92.011808 332 34023ft 479kts
16-Sep-18 09:53 34.510405 -92.081225 332 34049ft 477kts
16-Sep-18 09:54 34.626795 -92.150297 332 34049ft 477kts
16-Sep-18 09:55 34.742062 -92.208856 340 34049ft 478kts
16-Sep-18 09:56 34.866228 -92.260043 340 34049ft 477kts
16-Sep-18 09:57 34.991534 -92.312104 340 34044ft 475kts
16-Sep-18 09:58 35.114305 -92.363480 339 34047ft 477kts
16-Sep-18 09:59 35.239432 -92.416007 339 34046ft 477kts
16-Sep-18 10:00 35.364485 -92.468768 339 34047ft 477kts
16-Sep-18 10:01 35.489406 -92.521633 339 34048ft 477kts
16-Sep-18 10:02 35.614624 -92.574821 339 34049ft 477kts
16-Sep-18 10:03 35.739540 -92.628094 339 34049ft 477kts
16-Sep-18 10:04 35.861934 -92.680404 338 34101ft 476kts
16-Sep-18 10:05 35.985913 -92.733574 338 34084ft 475kts
16-Sep-18 10:06 36.107342 -92.785867 338 34080ft 475kts
16-Sep-18 10:07 36.231245 -92.839408 338 34102ft 475kts
16-Sep-18 10:08 36.355607 -92.893350 338 34103ft 475kts
16-Sep-18 10:09 36.479873 -92.947441 338 34129ft 475kts
16-Sep-18 10:10 36.602841 -93.001155 338 34129ft 474kts
16-Sep-18 10:11 36.726919 -93.055544 338 34127ft 474kts
16-Sep-18 10:12 36.849651 -93.109531 338 34105ft 475kts
16-Sep-18 10:13 36.973271 -93.164100 338 34102ft 475kts
16-Sep-18 10:14 37.097488 -93.219150 338 34106ft 475kts
16-Sep-18 10:15 37.217787 -93.272594 338 34100ft 475kts
16-Sep-18 10:16 37.339750 -93.326976 338 34100ft 475kts
16-Sep-18 10:17 37.454849 -93.402264 328 34098ft 472kts
16-Sep-18 10:18 37.568393 -93.483362 328 34098ft 473kts
16-Sep-18 10:19 37.682614 -93.564892 328 34103ft 473kts
16-Sep-18 10:20 37.795763 -93.645819 328 34104ft 472kts
16-Sep-18 10:21 37.907887 -93.726220 328 34105ft 473kts
16-Sep-18 10:22 38.021494 -93.807940 328 34104ft 472kts
16-Sep-18 10:23 38.134125 -93.889217 328 34100ft 473kts
16-Sep-18 10:24 38.248235 -93.971818 328 34101ft 473kts
16-Sep-18 10:25 38.362316 -94.054557 328 34100ft 473kts
16-Sep-18 10:26 38.473138 -94.135415 328 34101ft 473kts
16-Sep-18 10:27 38.586840 -94.218687 328 34104ft 474kts
16-Sep-18 10:28 38.696624 -94.299376 328 34102ft 473kts
16-Sep-18 10:29 38.810675 -94.383525 328 34104ft 474kts
16-Sep-18 10:30 38.924398 -94.467729 328 34104ft 474kts
16-Sep-18 10:31 39.037794 -94.552027 328 34108ft 474kts
16-Sep-18 10:32 39.143097 -94.630619 328 34075ft 474kts
16-Sep-18 10:33 39.255876 -94.710268 339 34109ft 477kts
16-Sep-18 10:34 39.386968 -94.719522 8 34107ft 480kts
16-Sep-18 10:35 39.518361 -94.693676 8 34079ft 479kts
16-Sep-18 10:36 39.649671 -94.668025 8 34078ft 479kts
16-Sep-18 10:37 39.781539 -94.642355 8 34079ft 480kts
16-Sep-18 10:38 39.910873 -94.617028 6 34081ft 463kts
16-Sep-18 10:39 40.036125 -94.592517 5 34106ft 458kts
16-Sep-18 10:40 40.147542 -94.570699 5 34106ft 457kts
16-Sep-18 10:41 40.271547 -94.546323 5 34106ft 457kts
16-Sep-18 10:42 40.397512 -94.521482 6 34106ft 456kts
16-Sep-18 10:43 40.524552 -94.496323 4 34107ft 470kts
16-Sep-18 10:44 40.653348 -94.470691 4 34108ft 470kts
16-Sep-18 10:45 40.782230 -94.444927 4 34109ft 469kts
16-Sep-18 10:46 40.910761 -94.419150 4 34109ft 469kts
16-Sep-18 10:47 41.039047 -94.393294 4 34112ft 469kts
16-Sep-18 10:48 41.148843 -94.371097 5 34106ft 460kts
16-Sep-18 10:49 41.269256 -94.346668 6 34101ft 453kts
16-Sep-18 10:50 41.391426 -94.321814 5 34104ft 452kts
16-Sep-18 10:51 41.514277 -94.296789 5 34078ft 453kts
16-Sep-18 10:52 41.637370 -94.271577 5 34076ft 453kts
16-Sep-18 10:53 41.758258 -94.246745 5 34076ft 453kts
16-Sep-18 10:54 41.879784 -94.221660 5 34076ft 453kts
16-Sep-18 10:55 42.002539 -94.196197 5 34074ft 453kts
16-Sep-18 10:56 42.123939 -94.170859 5 34080ft 458kts
16-Sep-18 10:57 42.247948 -94.145046 5 34049ft 453kts
16-Sep-18 10:58 42.371547 -94.119121 5 34048ft 452kts
16-Sep-18 10:59 42.495191 -94.093107 5 34081ft 453kts
16-Sep-18 11:00 42.618216 -94.063054 16 34084ft 457kts
16-Sep-18 11:01 42.728358 -93.982945 26 34077ft 461kts
16-Sep-18 11:02 42.838733 -93.896525 26 34079ft 462kts
16-Sep-18 11:03 42.948595 -93.811559 26 34075ft 461kts
16-Sep-18 11:04 43.056697 -93.727988 26 34079ft 461kts
16-Sep-18 11:05 43.162338 -93.646056 26 34081ft 461kts
16-Sep-18 11:06 43.269303 -93.565317 18 34080ft 457kts
16-Sep-18 11:07 43.390580 -93.540325 359 34078ft 445kts
16-Sep-18 11:08 43.513502 -93.530154 0 34079ft 445kts
16-Sep-18 11:09 43.630868 -93.520161 0 32359ft 451kts
16-Sep-18 11:10 43.754868 -93.509383 0 29104ft 447kts
16-Sep-18 11:11 43.879356 -93.498450 0 26401ft 457kts
16-Sep-18 11:12 44.002551 -93.486923 2 23708ft 435kts
16-Sep-18 11:13 44.115419 -93.473877 2 21256ft 395kts
16-Sep-18 11:14 44.216691 -93.450611 18 18999ft 370kts
16-Sep-18 11:15 44.309194 -93.399136 19 16939ft 360kts
16-Sep-18 11:16 44.397923 -93.346324 24 14831ft 353kts
16-Sep-18 11:17 44.482070 -93.287815 25 12796ft 336kts
16-Sep-18 11:18 44.562736 -93.231190 25 11429ft 309kts
16-Sep-18 11:19 44.639352 -93.211013 354 10542ft 282kts
16-Sep-18 11:20 44.714796 -93.232889 327 9606ft 275kts
16-Sep-18 11:21 44.774001 -93.288142 326 8543ft 243kts
16-Sep-18 11:22 44.839769 -93.281200 41 8387ft 296kts
16-Sep-18 11:23 44.894955 -93.205191 46 7116ft 257kts
16-Sep-18 11:24 44.942578 -93.138558 46 6056ft 233kts
16-Sep-18 11:25 44.987639 -93.075163 46 5035ft 226kts
16-Sep-18 11:26 45.035946 -93.025529 342 4371ft 205kts
16-Sep-18 11:27 45.041512 -93.070100 198 4129ft 165kts
16-Sep-18 11:28 44.990898 -93.088669 201 3417ft 164kts
16-Sep-18 11:29 44.959466 -93.116186 220 2728ft 160kts
16-Sep-18 11:30 44.923610 -93.149071 191 1594ft 147kts
16-Sep-18 11:31 44.905650 -93.185433 247 1195ft 136kts
16-Sep-18 11:32 44.884437 -93.220997 223 849ft 60kts
16-Sep-18 11:33 44.879626 -93.223683 226 849ft 21kts
16-Sep-18 11:34 44.876183 -93.226924 138 849ft 0kts
16-Sep-18 11:35 44.876183 -93.226924 138 849ft 0kts
16-Sep-18 11:36 44.876183 -93.226924 138 849ft 0kts

Navigation Log

Ident Type
Flight plan parsing failed, navigation log unavailable